createdAt,value
2023-03-27T18:42:44.277Z,0.40
2023-03-27T18:45:14.437Z,0.70
2023-03-27T18:47:44.797Z,0.57
2023-03-27T18:50:17.483Z,0.80
2023-03-27T18:52:45.816Z,1.02
2023-03-27T18:55:13.886Z,0.60
2023-03-27T18:57:44.172Z,0.80
2023-03-27T19:00:18.742Z,0.70
2023-03-27T19:02:51.505Z,0.70
2023-03-27T19:05:19.692Z,0.77
2023-03-27T19:07:48.418Z,0.73
2023-03-27T19:10:16.628Z,0.70
2023-03-27T19:12:54.993Z,0.60
2023-03-27T19:16:14.461Z,1.05
2023-03-27T19:19:01.554Z,0.50
2023-03-27T19:21:55.290Z,0.50
2023-03-27T19:24:36.033Z,0.50
2023-03-27T19:27:05.071Z,0.90
2023-03-27T19:29:34.466Z,0.77
2023-03-27T19:32:03.101Z,0.95
2023-03-27T19:34:42.100Z,0.52
2023-03-27T19:37:11.536Z,0.85
2023-03-27T19:39:39.761Z,0.90
2023-03-27T19:42:08.058Z,0.60
2023-03-27T19:44:48.252Z,0.90
2023-03-27T19:47:21.095Z,0.88
2023-03-27T19:49:49.698Z,1.00
2023-03-27T19:52:57.270Z,0.73
2023-03-27T19:55:29.584Z,0.70
2023-03-27T19:57:58.223Z,0.80
2023-03-27T20:00:26.638Z,0.70
2023-03-27T20:02:54.950Z,0.90
2023-03-27T20:05:23.690Z,0.80
2023-03-27T20:07:52.492Z,0.75
2023-03-27T20:10:21.799Z,0.65
2023-03-27T20:12:49.933Z,0.63
2023-03-27T20:15:18.579Z,0.65
2023-03-27T20:17:47.083Z,0.63
2023-03-27T20:20:15.503Z,0.73
2023-03-27T20:22:57.140Z,0.75
2023-03-27T20:25:28.338Z,1.08
2023-03-27T20:27:56.723Z,0.70
2023-03-27T20:30:25.222Z,0.63
2023-03-27T20:32:54.744Z,0.80
2023-03-27T20:35:24.953Z,0.80
2023-03-27T20:37:56.541Z,0.77
2023-03-27T20:40:27.258Z,1.13
2023-03-27T20:43:04.268Z,0.98
2023-03-27T20:48:04.448Z,0.80
2023-03-27T20:50:35.970Z,1.00
2023-03-27T20:53:04.975Z,0.98
2023-03-27T20:55:37.539Z,0.88
2023-03-27T20:58:14.520Z,0.85
2023-03-27T21:00:44.396Z,0.80
2023-03-27T21:03:12.481Z,1.00
2023-03-27T21:05:41.989Z,0.80
2023-03-27T21:08:10.319Z,0.90
2023-03-27T21:10:39.294Z,1.00
2023-03-27T21:13:08.011Z,0.93
2023-03-27T21:15:36.413Z,0.77
2023-03-27T21:18:04.549Z,0.80
2023-03-27T21:20:35.087Z,0.90
2023-03-27T21:23:03.446Z,0.80
2023-03-27T21:25:31.664Z,1.13
2023-03-27T21:28:04.751Z,0.80
2023-03-27T21:30:46.929Z,0.85
2023-03-27T21:33:16.978Z,1.00
2023-03-27T21:35:49.442Z,0.88
2023-03-27T21:38:18.443Z,0.95
2023-03-27T21:40:48.038Z,0.65
2023-03-27T21:43:16.410Z,0.95
2023-03-27T21:45:44.632Z,1.23
2023-03-27T21:48:12.746Z,1.30
2023-03-27T21:50:41.574Z,1.92
2023-03-27T21:53:09.969Z,1.50
2023-03-27T21:55:38.555Z,1.40
2023-03-27T21:58:07.347Z,1.48
2023-03-27T22:00:36.227Z,1.23
2023-03-27T22:03:04.583Z,1.77
2023-03-27T22:05:36.896Z,1.85
2023-03-27T22:08:06.651Z,2.53
2023-03-27T22:10:36.458Z,2.05
2023-03-27T22:13:06.290Z,2.33
2023-03-27T22:15:34.654Z,1.85
2023-03-27T22:18:03.372Z,2.55
2023-03-27T22:20:32.052Z,2.22
2023-03-27T22:23:00.611Z,2.17
2023-03-27T22:25:28.829Z,2.17
2023-03-27T22:27:57.376Z,1.98
2023-03-27T22:30:26.123Z,2.03
2023-03-27T22:32:55.377Z,1.55
2023-03-27T22:35:23.964Z,1.30
2023-03-27T22:37:52.580Z,1.10
2023-03-27T22:40:21.328Z,1.10
2023-03-27T22:42:49.611Z,0.80
2023-03-27T22:45:18.294Z,0.90
2023-03-27T22:47:47.031Z,1.05
2023-03-27T22:50:16.303Z,1.00
2023-03-27T22:52:44.468Z,1.15
2023-03-27T22:55:12.621Z,0.98
2023-03-27T22:57:41.382Z,1.08
2023-03-27T23:00:10.382Z,1.00
2023-03-27T23:02:38.983Z,1.25
2023-03-27T23:05:07.586Z,1.20
2023-03-27T23:07:36.642Z,0.95
2023-03-27T23:10:04.974Z,0.82
2023-03-27T23:12:33.572Z,0.93
2023-03-27T23:15:01.892Z,1.00
2023-03-27T23:17:30.623Z,1.00
2023-03-27T23:19:59.426Z,1.00
2023-03-27T23:22:27.616Z,0.70
2023-03-27T23:24:56.373Z,0.70
2023-03-27T23:27:25.054Z,1.10
2023-03-27T23:29:53.238Z,0.88
2023-03-27T23:32:22.100Z,1.23
2023-03-27T23:34:50.248Z,1.27
2023-03-27T23:37:18.889Z,1.00
2023-03-27T23:39:47.606Z,0.90
2023-03-27T23:42:16.248Z,0.80
2023-03-27T23:44:44.852Z,0.90
2023-03-27T23:47:13.568Z,0.90
2023-03-27T23:49:43.130Z,0.88
2023-03-27T23:52:11.694Z,1.10
2023-03-27T23:54:40.452Z,0.80
2023-03-27T23:57:09.276Z,1.00
2023-03-27T23:59:38.401Z,1.00
